CheckWX is a tool to help pilots better visualize weather data.  It is not intended as a substitute for an official pre-flight weather briefing.

13:30:15 UTC

2V6 METAR
Yuma Municipalcipal Airport
Yuma, Colorado, USA
Current

16 mins ago

K2V6 211314Z AUTO 32007KT 10SM CLR 11/01 A2998 RMK AO2
Observed
Sep-21 @ 13:14 UTC
Wind
  • 320° at 7 KTS
Visibility
10 SM
Flight Rules
VFR
Cloud Levels
  • Clear skies
Temperature
11°C / 52°F
Dewpoint
C / 34°F
Humidity
50%
Altimeter
29.98" Hg
Pressure
1015.22 hPa
Previous

36 mins ago

K2V6 211254Z AUTO 33009KT 10SM CLR 12/01 A2997 RMK AO2
Observed
Sep-21 @ 12:54 UTC
Wind
  • 330° at 9 KTS
Visibility
10 SM
Flight Rules
VFR
Cloud Levels
  • Clear skies
Temperature
12°C / 54°F
Dewpoint
C / 34°F
Humidity
47%
Altimeter
29.97" Hg
Pressure
1014.92 hPa
Previous

56 mins ago

K2V6 211234Z AUTO 33009KT 10SM CLR 11/02 A2996 RMK AO2
Observed
Sep-21 @ 12:34 UTC
Wind
  • 330° at 9 KTS
Visibility
10 SM
Flight Rules
VFR
Cloud Levels
  • Clear skies
Temperature
11°C / 52°F
Dewpoint
C / 36°F
Humidity
54%
Altimeter
29.96" Hg
Pressure
1014.52 hPa